createdAt,value
2019-05-23T00:01:56.975Z,95.10
2019-05-23T00:04:36.562Z,94.90
2019-05-23T00:07:07.201Z,94.80
2019-05-23T00:09:36.276Z,94.30
2019-05-23T00:12:06.853Z,93.80
2019-05-23T00:14:39.631Z,93.30
2019-05-23T00:17:11.528Z,93.40
2019-05-23T00:19:40.723Z,93.30
2019-05-23T00:22:11.828Z,92.80
2019-05-23T00:24:42.836Z,93.40
2019-05-23T00:27:13.165Z,93.60
2019-05-23T00:29:43.655Z,93.30
2019-05-23T00:32:31.845Z,93.20
2019-05-23T00:35:02.497Z,93.00
2019-05-23T00:37:32.143Z,93.40
2019-05-23T00:40:01.290Z,93.40
2019-05-23T00:42:32.050Z,93.30
2019-05-23T00:45:01.350Z,93.30
2019-05-23T00:47:31.373Z,93.30
2019-05-23T00:50:01.034Z,93.10
2019-05-23T00:52:31.054Z,92.80
2019-05-23T00:55:00.385Z,93.10
2019-05-23T00:57:29.524Z,93.50
2019-05-23T00:59:59.537Z,93.90
2019-05-23T01:02:28.584Z,94.50
2019-05-23T01:04:58.914Z,95.00
2019-05-23T01:07:28.422Z,95.10
2019-05-23T01:09:58.360Z,95.30
2019-05-23T01:12:28.563Z,95.40
2019-05-23T01:14:58.613Z,95.40
2019-05-23T01:17:28.456Z,95.00
2019-05-23T01:19:58.545Z,95.00
2019-05-23T01:22:28.382Z,94.40
2019-05-23T01:24:58.519Z,94.40
2019-05-23T01:27:27.504Z,94.10
2019-05-23T01:29:56.953Z,93.60
2019-05-23T01:32:27.624Z,93.60
2019-05-23T01:34:56.999Z,93.30
2019-05-23T01:37:26.598Z,93.10
2019-05-23T01:39:55.873Z,93.20
2019-05-23T01:42:26.232Z,93.00
2019-05-23T01:44:56.124Z,93.20
2019-05-23T01:47:26.433Z,93.30
2019-05-23T01:49:55.757Z,93.20
2019-05-23T01:52:25.873Z,93.00
2019-05-23T01:54:54.996Z,92.90
2019-05-23T01:57:25.094Z,93.00
2019-05-23T02:00:08.735Z,93.20
2019-05-23T02:02:27.595Z,93.10
2019-05-23T02:04:57.306Z,93.10
2019-05-23T02:07:27.242Z,93.00
2019-05-23T02:09:56.386Z,92.90
2019-05-23T02:12:26.054Z,93.10
2019-05-23T02:14:56.344Z,93.10
2019-05-23T02:17:25.765Z,93.30
2019-05-23T02:19:55.074Z,93.30
2019-05-23T02:22:24.282Z,93.10
2019-05-23T02:24:53.642Z,93.70
2019-05-23T02:27:23.715Z,93.20
2019-05-23T02:29:53.273Z,93.30
2019-05-23T02:32:23.787Z,92.80
2019-05-23T02:34:52.874Z,93.00
2019-05-23T02:37:26.253Z,92.70
2019-05-23T02:39:57.043Z,92.70
2019-05-23T02:42:31.328Z,92.80
2019-05-23T02:45:01.775Z,93.20
2019-05-23T02:47:35.321Z,93.10
2019-05-23T02:50:06.525Z,93.10
2019-05-23T02:52:39.440Z,93.00
2019-05-23T02:55:28.039Z,93.30
2019-05-23T02:57:58.553Z,92.90
2019-05-23T03:00:54.901Z,92.60
2019-05-23T03:03:27.215Z,92.40
2019-05-23T03:05:57.984Z,92.50
2019-05-23T03:08:27.675Z,92.00
2019-05-23T03:11:00.855Z,91.90
2019-05-23T03:13:30.922Z,92.00
2019-05-23T03:16:00.852Z,92.00
2019-05-23T03:18:34.433Z,92.00
2019-05-23T03:21:02.022Z,91.80
2019-05-23T03:23:31.545Z,91.60
2019-05-23T03:26:20.245Z,91.60
2019-05-23T03:28:50.035Z,91.40
2019-05-23T03:31:36.295Z,91.20
2019-05-23T03:34:07.051Z,91.80
2019-05-23T03:36:36.722Z,91.70
2019-05-23T03:39:07.723Z,91.70
2019-05-23T03:41:37.343Z,91.90
2019-05-23T03:44:08.051Z,91.70
2019-05-23T03:46:39.007Z,91.70
2019-05-23T03:49:09.232Z,91.80
2019-05-23T03:51:38.448Z,92.20
2019-05-23T03:54:08.853Z,92.30
2019-05-23T03:56:38.272Z,92.20
2019-05-23T03:59:08.213Z,91.70
2019-05-23T04:01:47.983Z,91.00
2019-05-23T04:04:09.502Z,90.80
2019-05-23T04:06:39.060Z,90.00
2019-05-23T04:09:08.345Z,89.10
2019-05-23T04:11:38.111Z,88.70
2019-05-23T04:14:08.702Z,90.20
2019-05-23T04:16:38.829Z,89.20
2019-05-23T04:19:08.353Z,90.00
2019-05-23T04:21:37.453Z,89.90
2019-05-23T04:24:06.858Z,87.80
2019-05-23T04:26:36.142Z,88.40
2019-05-23T04:29:05.558Z,86.10
2019-05-23T04:31:35.114Z,86.80
2019-05-23T04:34:05.256Z,86.30
2019-05-23T04:36:34.353Z,86.20
2019-05-23T04:39:04.178Z,85.90
2019-05-23T04:41:33.894Z,85.20
2019-05-23T04:44:03.021Z,85.10
2019-05-23T04:46:32.250Z,85.90
2019-05-23T04:49:01.171Z,85.20
2019-05-23T04:51:31.232Z,85.80
2019-05-23T04:56:29.378Z,81.20
2019-05-23T04:58:58.478Z,82.90
2019-05-23T05:01:27.758Z,81.40
2019-05-23T05:03:56.883Z,82.40
2019-05-23T05:06:26.345Z,83.20
2019-05-23T05:08:55.983Z,82.60
2019-05-23T05:11:29.439Z,82.90
2019-05-23T05:13:56.021Z,82.80
2019-05-23T05:16:25.251Z,82.50
2019-05-23T05:18:55.312Z,83.20
2019-05-23T05:21:24.379Z,81.30
2019-05-23T05:23:53.483Z,80.50
2019-05-23T05:26:23.376Z,80.60
2019-05-23T05:28:52.901Z,79.70
2019-05-23T05:31:22.016Z,79.80
2019-05-23T05:33:51.160Z,79.60
2019-05-23T05:36:20.348Z,78.10
2019-05-23T05:38:49.648Z,74.70
2019-05-23T05:41:19.132Z,71.00
2019-05-23T05:43:48.778Z,71.20
2019-05-23T05:46:18.181Z,71.40
2019-05-23T05:48:48.021Z,71.80
2019-05-23T05:51:17.480Z,68.40
2019-05-23T05:53:47.327Z,54.50
2019-05-23T05:56:16.728Z,48.10
2019-05-23T05:58:45.890Z,50.30
2019-05-23T06:01:31.186Z,49.50
2019-05-23T06:03:46.560Z,52.90
2019-05-23T06:06:17.500Z,54.20
2019-05-23T06:08:51.117Z,58.00
2019-05-23T06:11:20.588Z,59.60
2019-05-23T06:13:49.936Z,57.60
2019-05-23T06:16:19.264Z,50.20
2019-05-23T06:18:48.893Z,46.30
2019-05-23T06:21:19.975Z,44.10
2019-05-23T06:23:49.396Z,42.70
2019-05-23T06:26:18.602Z,42.70
2019-05-23T06:28:47.904Z,46.40
2019-05-23T06:31:18.355Z,50.20
2019-05-23T06:33:47.912Z,52.10
2019-05-23T06:36:17.881Z,47.30
2019-05-23T06:38:47.382Z,46.20
2019-05-23T06:41:17.115Z,48.90
2019-05-23T06:43:46.690Z,55.60
2019-05-23T06:46:16.324Z,59.50
2019-05-23T06:48:46.231Z,59.80
2019-05-23T06:51:15.551Z,58.70
2019-05-23T06:53:45.137Z,53.00
2019-05-23T06:56:14.823Z,59.00
2019-05-23T06:58:44.358Z,60.20
2019-05-23T07:01:13.317Z,57.60
2019-05-23T07:03:43.750Z,56.20
2019-05-23T07:06:14.951Z,56.70
2019-05-23T07:08:44.604Z,53.80
2019-05-23T07:11:14.115Z,53.40
2019-05-23T07:13:44.302Z,50.90
2019-05-23T07:16:13.574Z,48.90
2019-05-23T07:18:42.842Z,47.70
2019-05-23T07:21:12.364Z,45.80
2019-05-23T07:23:41.716Z,42.20
2019-05-23T07:26:11.025Z,43.80
2019-05-23T07:28:40.793Z,51.30
2019-05-23T07:31:09.864Z,51.70
2019-05-23T07:33:39.161Z,51.50
2019-05-23T07:36:08.100Z,49.30
2019-05-23T07:38:38.759Z,47.80
2019-05-23T07:41:08.193Z,47.60
2019-05-23T07:43:38.001Z,47.80
2019-05-23T07:46:07.797Z,47.10
2019-05-23T07:48:36.996Z,46.50
2019-05-23T07:51:06.215Z,48.70
2019-05-23T07:53:43.586Z,49.70
2019-05-23T07:56:12.005Z,50.00
2019-05-23T07:58:41.146Z,46.60
2019-05-23T08:01:11.956Z,49.00
2019-05-23T08:03:41.534Z,51.30
2019-05-23T08:06:10.807Z,52.30
2019-05-23T08:08:39.713Z,50.90
2019-05-23T08:11:08.714Z,52.30
2019-05-23T08:13:37.946Z,52.00
2019-05-23T08:16:07.419Z,54.10
2019-05-23T08:18:36.671Z,55.30
2019-05-23T08:21:05.933Z,54.60
2019-05-23T08:23:35.091Z,54.50
2019-05-23T08:26:04.580Z,54.40
2019-05-23T08:28:33.875Z,54.90
2019-05-23T08:31:09.217Z,53.10
2019-05-23T08:33:38.950Z,54.70
2019-05-23T08:36:08.732Z,53.40
2019-05-23T08:38:38.371Z,53.10
2019-05-23T08:41:08.287Z,53.60
2019-05-23T08:43:37.441Z,52.90
2019-05-23T08:46:07.264Z,53.40
2019-05-23T08:48:36.486Z,54.30
2019-05-23T08:51:05.936Z,55.60
2019-05-23T08:53:35.507Z,55.90
2019-05-23T08:56:18.039Z,53.90
2019-05-23T08:58:35.684Z,54.10
2019-05-23T09:01:05.374Z,53.70
2019-05-23T09:03:35.697Z,54.90
2019-05-23T09:06:04.894Z,55.10
2019-05-23T09:08:35.219Z,54.20
2019-05-23T09:11:05.524Z,54.70
2019-05-23T09:13:34.668Z,53.60
2019-05-23T09:16:03.881Z,51.70
2019-05-23T09:18:33.264Z,50.90
2019-05-23T09:21:02.457Z,52.60
2019-05-23T09:23:32.056Z,52.30
2019-05-23T09:26:01.224Z,51.10
2019-05-23T09:28:30.767Z,50.20
2019-05-23T09:30:59.973Z,50.50
2019-05-23T09:33:29.711Z,48.60
2019-05-23T09:35:59.046Z,47.30
2019-05-23T09:38:28.509Z,49.10
2019-05-23T09:40:57.937Z,48.10
2019-05-23T09:43:27.135Z,48.80
2019-05-23T09:45:56.193Z,49.20
2019-05-23T09:48:25.484Z,51.00
2019-05-23T09:50:54.721Z,50.90
2019-05-23T09:53:23.969Z,50.90
2019-05-23T09:55:55.766Z,50.60
2019-05-23T09:58:23.991Z,49.50
2019-05-23T10:00:53.039Z,49.10
2019-05-23T10:03:22.030Z,48.60
2019-05-23T10:05:51.769Z,47.60
2019-05-23T10:08:21.474Z,48.00
2019-05-23T10:10:50.877Z,48.80
2019-05-23T10:13:36.058Z,48.30
2019-05-23T10:16:05.534Z,48.70
2019-05-23T10:18:35.048Z,46.90
2019-05-23T10:21:04.333Z,48.60
2019-05-23T10:23:34.033Z,50.30
2019-05-23T10:26:03.455Z,48.20
2019-05-23T10:28:32.920Z,49.20
2019-05-23T10:31:02.294Z,47.80
2019-05-23T10:33:31.664Z,47.70
2019-05-23T10:36:01.381Z,46.30
2019-05-23T10:38:30.891Z,46.00
2019-05-23T10:41:00.247Z,48.00
2019-05-23T10:43:29.703Z,47.70
2019-05-23T10:45:59.043Z,46.70
2019-05-23T10:48:28.547Z,48.00
2019-05-23T10:50:57.822Z,48.00
2019-05-23T10:53:26.743Z,46.70
2019-05-23T10:55:56.085Z,46.20
2019-05-23T10:58:26.706Z,45.70
2019-05-23T11:00:56.123Z,45.80
2019-05-23T11:03:25.754Z,45.10
2019-05-23T11:05:55.052Z,45.70
2019-05-23T11:08:28.546Z,47.20
2019-05-23T11:10:55.014Z,45.20
2019-05-23T11:13:24.391Z,44.20
2019-05-23T11:15:54.053Z,44.30
2019-05-23T11:18:24.210Z,44.60
2019-05-23T11:20:53.494Z,45.00
2019-05-23T11:23:24.084Z,44.80
2019-05-23T11:25:53.538Z,45.00
2019-05-23T11:28:23.561Z,44.50
2019-05-23T11:30:54.212Z,44.90
2019-05-23T11:33:24.327Z,45.20
2019-05-23T11:35:53.668Z,44.50
2019-05-23T11:38:23.832Z,43.60
2019-05-23T11:40:52.932Z,44.50
2019-05-23T11:43:22.292Z,44.80
2019-05-23T11:45:58.724Z,44.70
2019-05-23T11:48:28.232Z,44.10
2019-05-23T11:50:57.412Z,43.10
2019-05-23T11:53:27.073Z,42.80
2019-05-23T11:55:56.052Z,42.90
2019-05-23T11:58:25.215Z,43.50
2019-05-23T12:01:20.920Z,43.20
2019-05-23T12:03:47.992Z,42.90
2019-05-23T12:06:17.807Z,44.50
2019-05-23T12:08:47.357Z,44.40
2019-05-23T12:11:17.371Z,44.40
2019-05-23T12:13:46.972Z,46.20
2019-05-23T12:16:16.944Z,46.50
2019-05-23T12:18:45.894Z,47.90
2019-05-23T12:21:15.288Z,48.20
2019-05-23T12:23:44.463Z,48.40
2019-05-23T12:26:13.527Z,48.70
2019-05-23T12:28:42.573Z,47.50
2019-05-23T12:31:11.715Z,47.10
2019-05-23T12:33:40.819Z,47.60
2019-05-23T12:36:12.113Z,48.40
2019-05-23T12:38:41.261Z,47.50
2019-05-23T12:41:12.132Z,47.10
2019-05-23T12:43:41.607Z,48.30
2019-05-23T12:46:10.563Z,48.40
2019-05-23T12:48:41.228Z,48.40
2019-05-23T12:51:21.304Z,47.60
2019-05-23T12:53:51.033Z,47.20
2019-05-23T12:56:20.752Z,47.60
2019-05-23T12:58:50.099Z,47.40
2019-05-23T13:01:19.451Z,47.40
2019-05-23T13:03:48.863Z,47.50
2019-05-23T13:06:18.026Z,46.70
2019-05-23T13:08:47.176Z,47.30
2019-05-23T13:11:16.483Z,46.10
2019-05-23T13:13:45.840Z,46.20
2019-05-23T13:16:15.283Z,46.20
2019-05-23T13:18:44.522Z,45.70
2019-05-23T13:21:13.711Z,44.80
2019-05-23T13:23:42.988Z,45.20
2019-05-23T13:26:13.122Z,45.30
2019-05-23T13:28:42.279Z,45.60
2019-05-23T13:31:11.371Z,45.90
2019-05-23T13:33:40.805Z,45.40
2019-05-23T13:36:10.245Z,46.30
2019-05-23T13:38:39.923Z,46.20
2019-05-23T13:41:08.904Z,45.50
2019-05-23T13:43:38.248Z,46.00
2019-05-23T13:46:07.421Z,45.20
2019-05-23T13:48:36.485Z,44.80
2019-05-23T13:51:05.874Z,46.20
2019-05-23T13:53:35.213Z,46.90
2019-05-23T13:56:04.671Z,47.10
2019-05-23T13:58:34.098Z,47.30
2019-05-23T14:01:08.860Z,46.70
2019-05-23T14:03:34.802Z,46.00
2019-05-23T14:06:03.992Z,46.20
2019-05-23T14:08:33.443Z,46.60
2019-05-23T14:11:02.769Z,46.20
2019-05-23T14:13:32.955Z,46.80
2019-05-23T14:16:02.906Z,46.50
2019-05-23T14:18:33.570Z,45.90
2019-05-23T14:21:02.923Z,45.50
2019-05-23T14:23:33.514Z,45.10
2019-05-23T14:26:03.144Z,44.60
2019-05-23T14:28:32.692Z,45.00
2019-05-23T14:31:03.743Z,45.40
2019-05-23T14:33:49.803Z,44.60
2019-05-23T14:36:23.272Z,45.10
2019-05-23T14:38:53.938Z,45.50
2019-05-23T14:41:23.148Z,45.20
2019-05-23T14:43:53.635Z,45.80
2019-05-23T14:46:23.063Z,46.30
2019-05-23T14:48:59.767Z,45.80
2019-05-23T14:51:47.304Z,45.80
2019-05-23T14:54:17.932Z,45.20
2019-05-23T14:56:48.049Z,45.50
2019-05-23T14:59:17.853Z,45.30
2019-05-23T15:01:46.828Z,45.60
2019-05-23T15:04:16.101Z,46.40
2019-05-23T15:06:45.427Z,46.30
2019-05-23T15:09:14.263Z,45.00
2019-05-23T15:11:43.822Z,45.20
2019-05-23T15:14:13.172Z,45.50
2019-05-23T15:16:42.442Z,46.50
2019-05-23T15:19:11.688Z,46.70
2019-05-23T15:21:40.772Z,46.90
2019-05-23T15:24:10.192Z,47.60
2019-05-23T15:26:39.438Z,47.20
2019-05-23T15:29:08.780Z,47.90
2019-05-23T15:31:38.117Z,48.50
2019-05-23T15:34:07.582Z,49.00
2019-05-23T15:36:36.863Z,49.00
2019-05-23T15:39:10.141Z,49.20
2019-05-23T15:41:38.703Z,49.20
2019-05-23T15:44:24.526Z,50.90
2019-05-23T15:46:38.563Z,50.40
2019-05-23T15:49:08.982Z,50.50
2019-05-23T15:51:39.552Z,50.50
2019-05-23T15:54:10.192Z,50.90
2019-05-23T15:56:40.996Z,50.50
2019-05-23T15:59:11.857Z,50.90
2019-05-23T16:01:45.638Z,51.30
2019-05-23T16:04:16.489Z,51.20
2019-05-23T16:06:45.673Z,51.00
2019-05-23T16:09:28.496Z,50.90
2019-05-23T16:11:46.403Z,51.50
2019-05-23T16:14:15.866Z,51.90
2019-05-23T16:16:45.572Z,52.00
2019-05-23T16:19:14.877Z,52.40
2019-05-23T16:21:44.268Z,52.20
2019-05-23T16:24:13.579Z,52.40
2019-05-23T16:26:42.973Z,52.40
2019-05-23T16:29:13.188Z,52.80
2019-05-23T16:31:42.985Z,53.50
2019-05-23T16:34:12.464Z,52.50
2019-05-23T16:36:41.803Z,53.50
2019-05-23T16:39:11.765Z,53.30
2019-05-23T16:41:41.147Z,53.20
2019-05-23T16:44:10.152Z,53.10
2019-05-23T16:46:39.476Z,53.30
2019-05-23T16:49:08.987Z,53.20
2019-05-23T16:51:38.469Z,53.30
2019-05-23T16:54:08.248Z,53.50
2019-05-23T16:56:39.145Z,53.70
2019-05-23T16:59:26.164Z,55.50
2019-05-23T17:02:05.658Z,56.40
2019-05-23T17:04:29.493Z,57.20
2019-05-23T17:07:12.052Z,57.80
2019-05-23T17:09:43.129Z,57.20
2019-05-23T17:12:30.540Z,57.40
2019-05-23T17:15:04.462Z,57.60
2019-05-23T17:18:00.679Z,57.30
2019-05-23T17:20:22.925Z,57.40
2019-05-23T17:22:56.577Z,57.80
2019-05-23T17:25:39.444Z,57.50
2019-05-23T17:28:16.007Z,57.50
2019-05-23T17:30:52.585Z,57.90
2019-05-23T17:33:21.955Z,57.90
2019-05-23T17:35:51.233Z,58.10
2019-05-23T17:38:20.755Z,57.90
2019-05-23T17:40:50.567Z,57.90
2019-05-23T17:43:19.672Z,58.10
2019-05-23T17:45:49.087Z,58.00
2019-05-23T17:48:18.427Z,58.30
2019-05-23T17:50:47.749Z,58.40
2019-05-23T17:53:17.123Z,58.10
2019-05-23T17:55:46.797Z,58.70
2019-05-23T17:58:17.848Z,58.60
2019-05-23T18:00:48.519Z,58.70
2019-05-23T18:03:18.041Z,59.00
2019-05-23T18:05:47.602Z,58.80
2019-05-23T18:08:17.770Z,59.30
2019-05-23T18:10:47.408Z,58.90
2019-05-23T18:13:17.236Z,59.30
2019-05-23T18:15:46.309Z,59.70
2019-05-23T18:18:15.549Z,59.70
2019-05-23T18:20:44.925Z,60.30
2019-05-23T18:23:14.103Z,60.80
2019-05-23T18:25:43.143Z,61.40
2019-05-23T18:28:12.706Z,61.80
2019-05-23T18:31:00.165Z,62.10
2019-05-23T18:33:30.928Z,63.10
2019-05-23T18:36:00.085Z,63.50
2019-05-23T18:38:29.641Z,63.30
2019-05-23T18:41:05.822Z,63.30
2019-05-23T18:43:30.476Z,63.90
2019-05-23T18:46:01.185Z,64.40
2019-05-23T18:48:30.648Z,64.20
2019-05-23T18:50:59.983Z,63.90
2019-05-23T18:53:29.150Z,64.40
2019-05-23T18:55:58.207Z,64.70
2019-05-23T18:58:27.417Z,64.90
2019-05-23T19:01:07.648Z,64.40
2019-05-23T19:03:36.811Z,63.70
2019-05-23T19:06:05.808Z,63.90
2019-05-23T19:08:34.909Z,63.90
2019-05-23T19:11:19.352Z,64.40
2019-05-23T19:13:34.788Z,64.50
2019-05-23T19:16:04.181Z,65.00
2019-05-23T19:18:34.310Z,66.00
2019-05-23T19:21:04.707Z,66.40
2019-05-23T19:23:34.246Z,66.60
2019-05-23T19:26:03.255Z,66.90
2019-05-23T19:28:32.393Z,66.50
2019-05-23T19:31:01.474Z,66.60
2019-05-23T19:33:30.984Z,66.70
2019-05-23T19:36:00.691Z,66.10
2019-05-23T19:38:30.353Z,66.50
2019-05-23T19:40:59.867Z,67.00
2019-05-23T19:43:29.108Z,66.20
2019-05-23T19:45:58.337Z,66.70
2019-05-23T19:48:27.714Z,67.20
2019-05-23T19:50:57.494Z,67.00
2019-05-23T19:53:27.330Z,67.20
2019-05-23T19:55:56.845Z,66.30
2019-05-23T19:58:26.655Z,66.60
2019-05-23T20:00:56.458Z,66.30
2019-05-23T20:03:25.611Z,66.20
2019-05-23T20:05:56.529Z,66.70
2019-05-23T20:08:25.709Z,66.90
2019-05-23T20:10:55.057Z,65.60
2019-05-23T20:13:24.387Z,65.60
2019-05-23T20:15:53.230Z,65.50
2019-05-23T20:18:22.937Z,65.40
2019-05-23T20:20:52.773Z,65.60
2019-05-23T20:23:22.247Z,65.80
2019-05-23T20:25:51.353Z,65.80
2019-05-23T20:28:21.760Z,65.80
2019-05-23T20:30:52.328Z,65.80
2019-05-23T20:33:21.818Z,66.40
2019-05-23T20:35:51.329Z,66.60
2019-05-23T20:38:20.470Z,66.70
2019-05-23T20:40:50.207Z,67.00
2019-05-23T20:43:19.453Z,67.10
2019-05-23T20:45:48.824Z,68.00
2019-05-23T20:48:18.007Z,68.50
2019-05-23T20:50:47.415Z,69.10
2019-05-23T20:53:16.501Z,69.30
2019-05-23T20:55:45.455Z,69.70
2019-05-23T20:58:14.573Z,70.40
2019-05-23T21:00:45.205Z,70.90
2019-05-23T21:03:14.377Z,70.90
2019-05-23T21:05:43.288Z,71.10
2019-05-23T21:08:12.362Z,71.50
2019-05-23T21:10:48.495Z,72.30
2019-05-23T21:13:17.775Z,72.80
2019-05-23T21:15:47.314Z,73.20
2019-05-23T21:18:16.411Z,73.20
2019-05-23T21:20:45.595Z,73.60
2019-05-23T21:23:14.795Z,73.60
2019-05-23T21:25:51.772Z,73.80
2019-05-23T21:28:21.172Z,73.60
2019-05-23T21:30:50.673Z,73.50
2019-05-23T21:33:19.910Z,73.50
2019-05-23T21:35:49.624Z,73.50
2019-05-23T21:38:18.844Z,73.90
2019-05-23T21:40:48.025Z,74.10
2019-05-23T21:43:17.517Z,73.90
2019-05-23T21:45:46.890Z,73.80
2019-05-23T21:48:16.838Z,73.90
2019-05-23T21:50:45.990Z,73.60
2019-05-23T21:53:15.215Z,73.70
2019-05-23T21:55:44.384Z,73.90
2019-05-23T21:58:14.351Z,74.00
2019-05-23T22:01:05.510Z,74.10
2019-05-23T22:03:53.432Z,74.40
2019-05-23T22:06:24.984Z,74.70
2019-05-23T22:08:54.412Z,74.60
2019-05-23T22:11:23.451Z,74.90
2019-05-23T22:13:52.540Z,75.10
2019-05-23T22:16:21.857Z,74.60
2019-05-23T22:18:50.832Z,74.50
2019-05-23T22:21:19.845Z,73.80
2019-05-23T22:23:49.573Z,74.20
2019-05-23T22:26:18.767Z,73.30
2019-05-23T22:28:48.051Z,72.80
2019-05-23T22:31:17.313Z,72.80
2019-05-23T22:33:59.796Z,72.70
2019-05-23T22:36:29.119Z,72.40
2019-05-23T22:38:58.344Z,72.00
2019-05-23T22:41:27.544Z,72.00
2019-05-23T22:43:56.742Z,72.20
2019-05-23T22:46:27.124Z,71.90
2019-05-23T22:48:56.525Z,71.80
2019-05-23T22:51:25.772Z,71.90
2019-05-23T22:53:55.097Z,72.20
2019-05-23T22:56:24.508Z,72.70
2019-05-23T22:58:54.027Z,73.10
2019-05-23T23:01:24.624Z,73.50
2019-05-23T23:03:54.273Z,73.60
2019-05-23T23:06:23.625Z,73.80
2019-05-23T23:08:52.772Z,73.90
2019-05-23T23:11:21.912Z,74.50
2019-05-23T23:13:51.225Z,75.30
2019-05-23T23:16:20.606Z,75.40
2019-05-23T23:18:49.862Z,75.60
2019-05-23T23:21:19.223Z,76.60
2019-05-23T23:23:48.308Z,77.10
2019-05-23T23:26:17.817Z,76.80
2019-05-23T23:28:46.851Z,77.00
2019-05-23T23:31:16.164Z,76.90
2019-05-23T23:33:45.378Z,77.30
2019-05-23T23:36:14.591Z,77.60
2019-05-23T23:38:43.832Z,78.00
2019-05-23T23:41:13.071Z,78.20
2019-05-23T23:43:57.822Z,78.00
2019-05-23T23:46:31.428Z,78.00
2019-05-23T23:49:18.706Z,77.70
2019-05-23T23:52:05.623Z,77.90
2019-05-23T23:54:52.743Z,77.90
2019-05-23T23:57:40.163Z,77.70
